SHT21B EGJB-EGLL
Flight info
| Callsign | SHT21B |
|---|---|
| Flight time | 0h 36m |
| Altitude | 19000 |
| Route | ORIST1F ORIST L982 ROXOG ROXOG1H |
| Aircraft | A319/M-SDE2E3FGHIJ1RWXY/S |
Departure
| Time | 2026-05-04 10:43 |
|---|---|
| Airport | Guernsey Airport (EGJB) |
Arrival
| Time | 2026-05-04 11:19 |
|---|---|
| Airport | London Heathrow Airport (EGLL) |
| Time | Latitude | Longitude | Altitude | Speed | Heading |
|---|---|---|---|---|---|
| 2026-05-04 10:32 | 49.43254 | -2.59684 | 328 ft | 0 kts | 178° |
| 2026-05-04 10:34 | 49.43267 | -2.59685 | 324 ft | 4 kts | 177° |
| 2026-05-04 10:34 | 49.43294 | -2.59687 | 328 ft | 4 kts | 178° |
| 2026-05-04 10:35 | 49.43321 | -2.59687 | 328 ft | 4 kts | 190° |
| 2026-05-04 10:35 | 49.43342 | -2.59675 | 324 ft | 4 kts | 213° |
| 2026-05-04 10:35 | 49.43359 | -2.59648 | 327 ft | 4 kts | 255° |
| 2026-05-04 10:35 | 49.43362 | -2.59616 | 326 ft | 0 kts | 267° |
| 2026-05-04 10:37 | 49.43361 | -2.59633 | 326 ft | 4 kts | 267° |
| 2026-05-04 10:39 | 49.43327 | -2.60601 | 294 ft | 23 kts | 275° |
| 2026-05-04 10:39 | 49.43353 | -2.60834 | 305 ft | 21 kts | 280° |
| 2026-05-04 10:39 | 49.43363 | -2.61031 | 311 ft | 18 kts | 267° |
| 2026-05-04 10:40 | 49.43359 | -2.61197 | 313 ft | 10 kts | 268° |
| 2026-05-04 10:40 | 49.43359 | -2.61218 | 313 ft | 0 kts | 271° |
| 2026-05-04 10:41 | 49.43375 | -2.61277 | 313 ft | 12 kts | 303° |
| 2026-05-04 10:41 | 49.43439 | -2.61355 | 316 ft | 12 kts | 353° |
| 2026-05-04 10:42 | 49.43464 | -2.61325 | 315 ft | 3 kts | 75° |
| 2026-05-04 10:42 | 49.43465 | -2.61311 | 315 ft | 0 kts | 85° |
| 2026-05-04 10:42 | 49.43478 | -2.60891 | 311 ft | 85 kts | 88° |
| 2026-05-04 10:42 | 49.43513 | -2.59598 | 430 ft | 141 kts | 87° |
| 2026-05-04 10:43 | 49.43536 | -2.58142 | 1158 ft | 139 kts | 88° |
| 2026-05-04 10:44 | 49.47136 | -2.47787 | 4965 ft | 218 kts | 14° |
| 2026-05-04 10:45 | 49.48666 | -2.47223 | 5484 ft | 237 kts | 14° |
| 2026-05-04 10:45 | 49.50350 | -2.46584 | 5978 ft | 261 kts | 14° |
| 2026-05-04 10:45 | 49.52174 | -2.45885 | 6648 ft | 277 kts | 14° |
| 2026-05-04 10:45 | 49.54065 | -2.45164 | 7512 ft | 283 kts | 14° |
| 2026-05-04 10:46 | 49.55991 | -2.44431 | 8427 ft | 287 kts | 14° |
| 2026-05-04 10:46 | 49.57950 | -2.43682 | 9343 ft | 292 kts | 15° |
| 2026-05-04 10:46 | 49.59936 | -2.42920 | 10210 ft | 297 kts | 15° |
| 2026-05-04 10:46 | 49.61959 | -2.42144 | 11005 ft | 302 kts | 15° |
| 2026-05-04 10:47 | 49.64019 | -2.41354 | 11772 ft | 308 kts | 15° |
| 2026-05-04 10:47 | 49.66116 | -2.40548 | 12534 ft | 314 kts | 15° |
| 2026-05-04 10:47 | 49.68236 | -2.39649 | 13281 ft | 319 kts | 21° |
| 2026-05-04 10:47 | 49.70230 | -2.38106 | 14001 ft | 323 kts | 36° |
| 2026-05-04 10:49 | 49.81940 | -2.17701 | 17741 ft | 378 kts | 52° |
| 2026-05-04 10:49 | 49.83647 | -2.14593 | 18419 ft | 381 kts | 52° |
| 2026-05-04 10:50 | 49.85370 | -2.11450 | 18863 ft | 384 kts | 52° |
| 2026-05-04 10:51 | 49.96972 | -1.90104 | 19021 ft | 391 kts | 52° |
| 2026-05-04 10:52 | 49.98754 | -1.86917 | 19019 ft | 392 kts | 47° |
| 2026-05-04 10:52 | 50.00826 | -1.84141 | 19021 ft | 394 kts | 37° |
| 2026-05-04 10:52 | 50.03184 | -1.81969 | 19010 ft | 396 kts | 28° |
| 2026-05-04 10:54 | 50.19260 | -1.65791 | 19025 ft | 394 kts | 41° |
| 2026-05-04 10:54 | 50.21366 | -1.63052 | 19024 ft | 394 kts | 41° |
| 2026-05-04 10:56 | 50.38567 | -1.50389 | 19021 ft | 397 kts | 18° |
| 2026-05-04 10:56 | 50.41200 | -1.49090 | 19007 ft | 396 kts | 18° |
| 2026-05-04 10:56 | 50.43830 | -1.47795 | 19010 ft | 396 kts | 18° |
| 2026-05-04 10:57 | 50.46465 | -1.46499 | 19010 ft | 397 kts | 18° |
| 2026-05-04 10:57 | 50.49098 | -1.45204 | 19009 ft | 397 kts | 18° |
| 2026-05-04 10:57 | 50.51728 | -1.43909 | 19004 ft | 397 kts | 18° |
| 2026-05-04 10:57 | 50.54311 | -1.42397 | 19004 ft | 396 kts | 26° |
| 2026-05-04 10:58 | 50.56747 | -1.40366 | 19007 ft | 396 kts | 29° |
| 2026-05-04 10:58 | 50.59163 | -1.38292 | 18998 ft | 396 kts | 29° |
| 2026-05-04 10:58 | 50.61579 | -1.36212 | 18999 ft | 396 kts | 29° |
| 2026-05-04 10:58 | 50.63996 | -1.34129 | 19002 ft | 396 kts | 29° |
| 2026-05-04 10:59 | 50.66409 | -1.32046 | 19002 ft | 396 kts | 29° |
| 2026-05-04 10:59 | 50.68824 | -1.29964 | 18997 ft | 396 kts | 29° |
| 2026-05-04 10:59 | 50.71242 | -1.27881 | 19000 ft | 396 kts | 29° |
| 2026-05-04 10:59 | 50.73620 | -1.25829 | 18919 ft | 392 kts | 29° |
| 2026-05-04 11:00 | 50.75980 | -1.23788 | 18642 ft | 382 kts | 29° |
| 2026-05-04 11:01 | 50.91023 | -1.08311 | 15232 ft | 356 kts | 34° |
| 2026-05-04 11:02 | 50.93086 | -1.06167 | 14755 ft | 353 kts | 34° |
| 2026-05-04 11:02 | 50.95135 | -1.04040 | 14281 ft | 351 kts | 33° |
| 2026-05-04 11:05 | 51.17657 | -0.67898 | 9505 ft | 296 kts | 49° |
| 2026-05-04 11:06 | 51.19019 | -0.65452 | 9187 ft | 294 kts | 49° |
| 2026-05-04 11:06 | 51.20372 | -0.63022 | 8863 ft | 292 kts | 49° |
| 2026-05-04 11:06 | 51.21708 | -0.60614 | 8697 ft | 290 kts | 49° |
| 2026-05-04 11:06 | 51.23045 | -0.58207 | 8567 ft | 289 kts | 49° |
| 2026-05-04 11:08 | 51.31063 | -0.41358 | 7661 ft | 251 kts | 77° |
| 2026-05-04 11:10 | 51.33970 | -0.23792 | 6444 ft | 217 kts | 76° |
| 2026-05-04 11:12 | 51.36505 | -0.08410 | 5353 ft | 201 kts | 76° |
| 2026-05-04 11:12 | 51.36856 | -0.06250 | 5205 ft | 200 kts | 76° |
| 2026-05-04 11:12 | 51.37244 | -0.04120 | 5042 ft | 200 kts | 65° |
| 2026-05-04 11:12 | 51.38183 | -0.02537 | 4905 ft | 199 kts | 26° |
| 2026-05-04 11:13 | 51.39505 | -0.02146 | 4787 ft | 196 kts | 354° |
| 2026-05-04 11:13 | 51.40810 | -0.02722 | 4648 ft | 194 kts | 336° |
| 2026-05-04 11:13 | 51.42005 | -0.03722 | 4504 ft | 194 kts | 326° |
| 2026-05-04 11:13 | 51.43035 | -0.05105 | 4377 ft | 194 kts | 314° |
| 2026-05-04 11:14 | 51.43945 | -0.06693 | 4250 ft | 193 kts | 311° |
| 2026-05-04 11:14 | 51.44833 | -0.08305 | 4121 ft | 193 kts | 309° |
| 2026-05-04 11:14 | 51.45614 | -0.10049 | 3994 ft | 192 kts | 304° |
| 2026-05-04 11:16 | 51.47801 | -0.24060 | 2482 ft | 180 kts | 270° |
| 2026-05-04 11:16 | 51.47799 | -0.26042 | 2241 ft | 176 kts | 271° |
| 2026-05-04 11:16 | 51.47796 | -0.27985 | 2013 ft | 172 kts | 271° |
| 2026-05-04 11:17 | 51.47794 | -0.29898 | 1778 ft | 170 kts | 271° |
| 2026-05-04 11:17 | 51.47791 | -0.31784 | 1544 ft | 168 kts | 271° |
| 2026-05-04 11:19 | 51.47772 | -0.42885 | 203 ft | 130 kts | 271° |
| 2026-05-04 11:19 | 51.47764 | -0.44278 | 86 ft | 118 kts | 271° |
| 2026-05-04 11:19 | 51.47766 | -0.45359 | 86 ft | 73 kts | 270° |
| 2026-05-04 11:19 | 51.47726 | -0.45844 | 85 ft | 32 kts | 236° |
| 2026-05-04 11:20 | 51.47634 | -0.45996 | 88 ft | 0 kts | 212° |
| 2026-05-04 11:20 | 51.47614 | -0.46022 | 87 ft | 6 kts | 220° |
| 2026-05-04 11:20 | 51.47572 | -0.46072 | 88 ft | 9 kts | 206° |
| 2026-05-04 11:20 | 51.47521 | -0.46140 | 89 ft | 11 kts | 251° |
| 2026-05-04 11:22 | 51.47495 | -0.47101 | 89 ft | 13 kts | 265° |
| 2026-05-04 11:22 | 51.47492 | -0.47271 | 86 ft | 20 kts | 269° |
| 2026-05-04 11:23 | 51.47490 | -0.47432 | 87 ft | 22 kts | 269° |
| 2026-05-04 11:23 | 51.47489 | -0.47701 | 86 ft | 25 kts | 270° |
| 2026-05-04 11:24 | 51.47283 | -0.48357 | 86 ft | 16 kts | 180° |
| 2026-05-04 11:25 | 51.47164 | -0.48355 | 89 ft | 18 kts | 179° |
| 2026-05-04 11:25 | 51.47033 | -0.48354 | 86 ft | 20 kts | 180° |
| 2026-05-04 11:25 | 51.46908 | -0.48356 | 86 ft | 13 kts | 190° |
| 2026-05-04 11:26 | 51.46877 | -0.48659 | 86 ft | 17 kts | 269° |
| 2026-05-04 11:27 | 51.46932 | -0.48787 | 89 ft | 0 kts | 359° |